sensor_id;sensor_type;location;lat;lon;timestamp;P1;durP1;ratioP1;P2;durP2;ratioP2
29006;SDS011;16104;48.642;9.008;2023-02-15T00:01:28;28.95;;;15.35;;
29006;SDS011;16104;48.642;9.008;2023-02-15T00:06:24;29.00;;;16.02;;
29006;SDS011;16104;48.642;9.008;2023-02-15T00:11:20;31.83;;;17.33;;
29006;SDS011;16104;48.642;9.008;2023-02-15T00:16:34;24.08;;;15.23;;
29006;SDS011;16104;48.642;9.008;2023-02-15T00:21:31;27.13;;;15.45;;
29006;SDS011;16104;48.642;9.008;2023-02-15T00:26:28;27.00;;;15.38;;
29006;SDS011;16104;48.642;9.008;2023-02-15T00:31:24;28.85;;;16.98;;
29006;SDS011;16104;48.642;9.008;2023-02-15T00:36:20;28.95;;;16.65;;
29006;SDS011;16104;48.642;9.008;2023-02-15T00:41:15;29.27;;;15.52;;
29006;SDS011;16104;48.642;9.008;2023-02-15T00:46:11;18.98;;;12.43;;
29006;SDS011;16104;48.642;9.008;2023-02-15T00:51:06;21.13;;;13.00;;
29006;SDS011;16104;48.642;9.008;2023-02-15T00:56:02;26.70;;;14.88;;
29006;SDS011;16104;48.642;9.008;2023-02-15T02:02:02;22.02;;;12.73;;
29006;SDS011;16104;48.642;9.008;2023-02-15T02:07:01;31.13;;;16.63;;
29006;SDS011;16104;48.642;9.008;2023-02-15T02:11:58;18.23;;;10.57;;
29006;SDS011;16104;48.642;9.008;2023-02-15T03:02:43;27.05;;;15.07;;
29006;SDS011;16104;48.642;9.008;2023-02-15T03:07:42;28.13;;;16.33;;
29006;SDS011;16104;48.642;9.008;2023-02-15T03:12:42;25.08;;;15.70;;
29006;SDS011;16104;48.642;9.008;2023-02-15T04:03:29;26.90;;;14.57;;
29006;SDS011;16104;48.642;9.008;2023-02-15T04:08:30;19.45;;;12.55;;
29006;SDS011;16104;48.642;9.008;2023-02-15T04:13:44;21.38;;;12.85;;
29006;SDS011;16104;48.642;9.008;2023-02-15T04:18:41;21.08;;;12.57;;
29006;SDS011;16104;48.642;9.008;2023-02-15T04:23:56;22.38;;;13.13;;
29006;SDS011;16104;48.642;9.008;2023-02-15T04:29:10;20.05;;;13.05;;
29006;SDS011;16104;48.642;9.008;2023-02-15T04:34:06;22.52;;;12.85;;
29006;SDS011;16104;48.642;9.008;2023-02-15T04:39:01;24.23;;;12.68;;
29006;SDS011;16104;48.642;9.008;2023-02-15T04:43:57;20.38;;;12.20;;
29006;SDS011;16104;48.642;9.008;2023-02-15T04:48:54;23.92;;;13.73;;
29006;SDS011;16104;48.642;9.008;2023-02-15T04:53:50;25.42;;;12.70;;
29006;SDS011;16104;48.642;9.008;2023-02-15T04:58:47;22.80;;;13.55;;
29006;SDS011;16104;48.642;9.008;2023-02-15T05:03:43;24.10;;;13.55;;
29006;SDS011;16104;48.642;9.008;2023-02-15T05:08:38;20.30;;;12.73;;
29006;SDS011;16104;48.642;9.008;2023-02-15T05:13:34;24.40;;;13.85;;
29006;SDS011;16104;48.642;9.008;2023-02-15T05:18:29;24.52;;;13.02;;
29006;SDS011;16104;48.642;9.008;2023-02-15T05:23:25;24.50;;;13.23;;
29006;SDS011;16104;48.642;9.008;2023-02-15T05:28:21;22.42;;;12.55;;
29006;SDS011;16104;48.642;9.008;2023-02-15T05:33:18;22.80;;;12.38;;
29006;SDS011;16104;48.642;9.008;2023-02-15T05:38:13;21.38;;;11.40;;
29006;SDS011;16104;48.642;9.008;2023-02-15T05:43:09;20.08;;;10.63;;
29006;SDS011;16104;48.642;9.008;2023-02-15T05:48:04;19.73;;;11.80;;
29006;SDS011;16104;48.642;9.008;2023-02-15T05:53:00;21.52;;;12.52;;
29006;SDS011;16104;48.642;9.008;2023-02-15T05:57:55;21.23;;;12.85;;
29006;SDS011;16104;48.642;9.008;2023-02-15T06:02:51;18.50;;;12.00;;
29006;SDS011;16104;48.642;9.008;2023-02-15T06:07:46;20.92;;;11.95;;
29006;SDS011;16104;48.642;9.008;2023-02-15T06:12:43;21.58;;;12.35;;
29006;SDS011;16104;48.642;9.008;2023-02-15T06:17:42;19.38;;;11.63;;
29006;SDS011;16104;48.642;9.008;2023-02-15T06:22:38;23.02;;;12.25;;
29006;SDS011;16104;48.642;9.008;2023-02-15T06:27:33;21.63;;;10.60;;
29006;SDS011;16104;48.642;9.008;2023-02-15T06:32:29;20.45;;;11.48;;
29006;SDS011;16104;48.642;9.008;2023-02-15T06:37:24;19.25;;;11.63;;
29006;SDS011;16104;48.642;9.008;2023-02-15T06:42:21;24.60;;;12.13;;
29006;SDS011;16104;48.642;9.008;2023-02-15T06:47:17;23.17;;;12.35;;
29006;SDS011;16104;48.642;9.008;2023-02-15T06:52:12;21.02;;;11.80;;
29006;SDS011;16104;48.642;9.008;2023-02-15T06:57:08;23.40;;;13.15;;
29006;SDS011;16104;48.642;9.008;2023-02-15T07:02:04;23.20;;;13.95;;
29006;SDS011;16104;48.642;9.008;2023-02-15T07:07:00;23.20;;;13.07;;
29006;SDS011;16104;48.642;9.008;2023-02-15T07:11:55;22.52;;;12.43;;
29006;SDS011;16104;48.642;9.008;2023-02-15T07:17:09;16.83;;;9.95;;
29006;SDS011;16104;48.642;9.008;2023-02-15T07:22:05;19.20;;;10.77;;
29006;SDS011;16104;48.642;9.008;2023-02-15T07:27:00;20.35;;;11.10;;
29006;SDS011;16104;48.642;9.008;2023-02-15T07:31:56;15.73;;;9.00;;
29006;SDS011;16104;48.642;9.008;2023-02-15T07:36:51;17.38;;;9.52;;
29006;SDS011;16104;48.642;9.008;2023-02-15T07:41:48;17.45;;;9.55;;
29006;SDS011;16104;48.642;9.008;2023-02-15T07:46:44;20.75;;;10.65;;
29006;SDS011;16104;48.642;9.008;2023-02-15T07:51:39;16.90;;;9.75;;
29006;SDS011;16104;48.642;9.008;2023-02-15T07:56:36;14.85;;;7.95;;
29006;SDS011;16104;48.642;9.008;2023-02-15T08:01:32;14.10;;;8.48;;
29006;SDS011;16104;48.642;9.008;2023-02-15T08:06:30;17.35;;;9.23;;
29006;SDS011;16104;48.642;9.008;2023-02-15T08:11:28;18.58;;;8.30;;
29006;SDS011;16104;48.642;9.008;2023-02-15T08:21:34;15.18;;;8.30;;
29006;SDS011;16104;48.642;9.008;2023-02-15T08:26:31;16.70;;;9.45;;
29006;SDS011;16104;48.642;9.008;2023-02-15T08:31:27;18.42;;;10.07;;
29006;SDS011;16104;48.642;9.008;2023-02-15T08:36:25;16.52;;;9.52;;
29006;SDS011;16104;48.642;9.008;2023-02-15T08:41:23;18.77;;;10.13;;
29006;SDS011;16104;48.642;9.008;2023-02-15T08:46:21;13.60;;;9.05;;
29006;SDS011;16104;48.642;9.008;2023-02-15T08:51:19;15.45;;;8.93;;
29006;SDS011;16104;48.642;9.008;2023-02-15T08:56:21;20.63;;;10.23;;
29006;SDS011;16104;48.642;9.008;2023-02-15T09:01:20;15.60;;;9.17;;
29006;SDS011;16104;48.642;9.008;2023-02-15T09:06:17;19.23;;;10.70;;
29006;SDS011;16104;48.642;9.008;2023-02-15T09:16:17;15.10;;;9.00;;
29006;SDS011;16104;48.642;9.008;2023-02-15T09:21:14;19.27;;;9.73;;
29006;SDS011;16104;48.642;9.008;2023-02-15T09:26:15;15.30;;;9.05;;
29006;SDS011;16104;48.642;9.008;2023-02-15T09:31:16;19.02;;;9.52;;
29006;SDS011;16104;48.642;9.008;2023-02-15T09:46:50;24.50;;;15.13;;
29006;SDS011;16104;48.642;9.008;2023-02-15T09:57:53;26.08;;;14.40;;
29006;SDS011;16104;48.642;9.008;2023-02-15T10:13:48;23.85;;;13.85;;
29006;SDS011;16104;48.642;9.008;2023-02-15T10:19:00;20.23;;;13.40;;
29006;SDS011;16104;48.642;9.008;2023-02-15T10:24:28;20.33;;;12.27;;
29006;SDS011;16104;48.642;9.008;2023-02-15T10:29:37;22.17;;;12.80;;
29006;SDS011;16104;48.642;9.008;2023-02-15T10:39:40;20.65;;;13.52;;
29006;SDS011;16104;48.642;9.008;2023-02-15T10:44:47;21.92;;;14.48;;
29006;SDS011;16104;48.642;9.008;2023-02-15T10:55:18;16.75;;;9.75;;
29006;SDS011;16104;48.642;9.008;2023-02-15T11:00:24;13.02;;;8.38;;
29006;SDS011;16104;48.642;9.008;2023-02-15T11:15:57;12.85;;;8.00;;
29006;SDS011;16104;48.642;9.008;2023-02-15T11:21:20;14.70;;;6.82;;
29006;SDS011;16104;48.642;9.008;2023-02-15T11:26:21;13.85;;;7.47;;
29006;SDS011;16104;48.642;9.008;2023-02-15T11:31:35;10.95;;;7.22;;
29006;SDS011;16104;48.642;9.008;2023-02-15T11:36:40;10.43;;;6.85;;
29006;SDS011;16104;48.642;9.008;2023-02-15T11:41:38;11.40;;;6.22;;
29006;SDS011;16104;48.642;9.008;2023-02-15T11:46:39;6.68;;;4.93;;
29006;SDS011;16104;48.642;9.008;2023-02-15T11:51:35;9.52;;;5.38;;
29006;SDS011;16104;48.642;9.008;2023-02-15T11:56:31;8.27;;;5.13;;
29006;SDS011;16104;48.642;9.008;2023-02-15T12:01:37;7.40;;;4.50;;
29006;SDS011;16104;48.642;9.008;2023-02-15T12:06:49;6.10;;;4.35;;
29006;SDS011;16104;48.642;9.008;2023-02-15T12:11:50;9.85;;;4.07;;
29006;SDS011;16104;48.642;9.008;2023-02-15T12:16:47;5.40;;;3.63;;
29006;SDS011;16104;48.642;9.008;2023-02-15T12:21:48;4.75;;;3.67;;
29006;SDS011;16104;48.642;9.008;2023-02-15T12:26:55;6.40;;;3.75;;
29006;SDS011;16104;48.642;9.008;2023-02-15T12:31:52;5.95;;;4.15;;
29006;SDS011;16104;48.642;9.008;2023-02-15T12:36:50;8.82;;;6.18;;
29006;SDS011;16104;48.642;9.008;2023-02-15T12:41:56;8.77;;;5.90;;
29006;SDS011;16104;48.642;9.008;2023-02-15T12:47:02;8.07;;;5.30;;
29006;SDS011;16104;48.642;9.008;2023-02-15T12:51:59;6.70;;;5.05;;
29006;SDS011;16104;48.642;9.008;2023-02-15T12:56:57;5.50;;;4.47;;
29006;SDS011;16104;48.642;9.008;2023-02-15T13:01:53;7.13;;;4.70;;
29006;SDS011;16104;48.642;9.008;2023-02-15T13:06:51;6.43;;;4.75;;
29006;SDS011;16104;48.642;9.008;2023-02-15T13:11:49;9.15;;;6.82;;
29006;SDS011;16104;48.642;9.008;2023-02-15T13:16:45;10.05;;;5.00;;
29006;SDS011;16104;48.642;9.008;2023-02-15T13:21:44;5.87;;;4.10;;
29006;SDS011;16104;48.642;9.008;2023-02-15T13:26:43;5.68;;;4.18;;
29006;SDS011;16104;48.642;9.008;2023-02-15T13:31:40;8.73;;;5.22;;
29006;SDS011;16104;48.642;9.008;2023-02-15T13:36:39;8.18;;;5.22;;
29006;SDS011;16104;48.642;9.008;2023-02-15T13:47:30;6.70;;;5.60;;
29006;SDS011;16104;48.642;9.008;2023-02-15T13:52:39;9.88;;;6.90;;
29006;SDS011;16104;48.642;9.008;2023-02-15T14:07:56;10.13;;;7.05;;
29006;SDS011;16104;48.642;9.008;2023-02-15T14:23:05;11.18;;;7.90;;
29006;SDS011;16104;48.642;9.008;2023-02-15T14:28:28;13.90;;;7.22;;
29006;SDS011;16104;48.642;9.008;2023-02-15T14:33:39;11.40;;;8.27;;
29006;SDS011;16104;48.642;9.008;2023-02-15T14:38:47;10.15;;;7.55;;
29006;SDS011;16104;48.642;9.008;2023-02-15T14:49:33;11.32;;;8.77;;
29006;SDS011;16104;48.642;9.008;2023-02-15T14:59:45;12.90;;;8.73;;
29006;SDS011;16104;48.642;9.008;2023-02-15T15:41:08;8.23;;;6.43;;
29006;SDS011;16104;48.642;9.008;2023-02-15T15:51:18;10.85;;;6.60;;
29006;SDS011;16104;48.642;9.008;2023-02-15T15:56:32;13.85;;;11.85;;
29006;SDS011;16104;48.642;9.008;2023-02-15T16:01:30;7.57;;;6.72;;
29006;SDS011;16104;48.642;9.008;2023-02-15T16:06:37;18.70;;;9.52;;
29006;SDS011;16104;48.642;9.008;2023-02-15T16:11:34;16.00;;;8.82;;
29006;SDS011;16104;48.642;9.008;2023-02-15T16:16:30;10.20;;;7.18;;
29006;SDS011;16104;48.642;9.008;2023-02-15T16:21:29;12.82;;;7.57;;
29006;SDS011;16104;48.642;9.008;2023-02-15T16:27:05;10.75;;;7.22;;
29006;SDS011;16104;48.642;9.008;2023-02-15T16:37:17;11.95;;;7.47;;
29006;SDS011;16104;48.642;9.008;2023-02-15T16:42:13;14.35;;;8.45;;
29006;SDS011;16104;48.642;9.008;2023-02-15T16:47:18;12.20;;;7.93;;
29006;SDS011;16104;48.642;9.008;2023-02-15T16:52:20;16.88;;;11.30;;
29006;SDS011;16104;48.642;9.008;2023-02-15T16:57:19;17.00;;;8.80;;
29006;SDS011;16104;48.642;9.008;2023-02-15T17:02:27;17.40;;;9.30;;
29006;SDS011;16104;48.642;9.008;2023-02-15T17:07:24;15.95;;;8.30;;
29006;SDS011;16104;48.642;9.008;2023-02-15T17:17:41;17.55;;;9.50;;
29006;SDS011;16104;48.642;9.008;2023-02-15T17:22:38;12.88;;;7.97;;
29006;SDS011;16104;48.642;9.008;2023-02-15T17:27:34;18.45;;;10.18;;
29006;SDS011;16104;48.642;9.008;2023-02-15T17:32:31;18.73;;;10.25;;
29006;SDS011;16104;48.642;9.008;2023-02-15T17:37:32;25.20;;;12.52;;
29006;SDS011;16104;48.642;9.008;2023-02-15T17:42:41;23.50;;;15.18;;
29006;SDS011;16104;48.642;9.008;2023-02-15T17:47:36;26.35;;;12.52;;
29006;SDS011;16104;48.642;9.008;2023-02-15T17:52:32;18.98;;;12.57;;
29006;SDS011;16104;48.642;9.008;2023-02-15T17:57:28;21.92;;;10.88;;
29006;SDS011;16104;48.642;9.008;2023-02-15T18:02:25;25.38;;;12.05;;
29006;SDS011;16104;48.642;9.008;2023-02-15T18:07:44;17.17;;;8.90;;
29006;SDS011;16104;48.642;9.008;2023-02-15T18:12:58;14.90;;;8.07;;
29006;SDS011;16104;48.642;9.008;2023-02-15T18:17:54;20.95;;;8.48;;
29006;SDS011;16104;48.642;9.008;2023-02-15T18:22:50;14.30;;;8.77;;
29006;SDS011;16104;48.642;9.008;2023-02-15T18:27:46;14.27;;;8.43;;
29006;SDS011;16104;48.642;9.008;2023-02-15T18:32:42;16.95;;;9.15;;
29006;SDS011;16104;48.642;9.008;2023-02-15T18:37:39;19.23;;;10.80;;
29006;SDS011;16104;48.642;9.008;2023-02-15T18:42:35;21.10;;;10.20;;
29006;SDS011;16104;48.642;9.008;2023-02-15T18:47:31;18.00;;;11.27;;
29006;SDS011;16104;48.642;9.008;2023-02-15T18:52:28;18.55;;;10.63;;
29006;SDS011;16104;48.642;9.008;2023-02-15T18:57:27;23.25;;;13.02;;
29006;SDS011;16104;48.642;9.008;2023-02-15T19:02:24;25.77;;;14.15;;
29006;SDS011;16104;48.642;9.008;2023-02-15T19:07:22;23.52;;;14.75;;
29006;SDS011;16104;48.642;9.008;2023-02-15T19:12:23;24.10;;;14.20;;
29006;SDS011;16104;48.642;9.008;2023-02-15T19:17:20;22.02;;;13.95;;
29006;SDS011;16104;48.642;9.008;2023-02-15T19:22:18;35.97;;;14.32;;
29006;SDS011;16104;48.642;9.008;2023-02-15T19:27:28;23.58;;;14.55;;
29006;SDS011;16104;48.642;9.008;2023-02-15T19:32:25;22.17;;;14.48;;
29006;SDS011;16104;48.642;9.008;2023-02-15T19:37:26;23.10;;;13.77;;
29006;SDS011;16104;48.642;9.008;2023-02-15T19:42:31;24.70;;;12.88;;
29006;SDS011;16104;48.642;9.008;2023-02-15T19:47:28;19.48;;;12.23;;
29006;SDS011;16104;48.642;9.008;2023-02-15T19:52:24;19.67;;;12.80;;
29006;SDS011;16104;48.642;9.008;2023-02-15T19:57:19;26.25;;;14.13;;
29006;SDS011;16104;48.642;9.008;2023-02-15T20:02:15;24.67;;;13.88;;
29006;SDS011;16104;48.642;9.008;2023-02-15T20:07:15;23.23;;;13.65;;
29006;SDS011;16104;48.642;9.008;2023-02-15T20:12:23;25.98;;;15.32;;
29006;SDS011;16104;48.642;9.008;2023-02-15T20:17:20;27.85;;;15.95;;
29006;SDS011;16104;48.642;9.008;2023-02-15T20:22:20;28.73;;;14.95;;
29006;SDS011;16104;48.642;9.008;2023-02-15T20:27:18;28.75;;;15.30;;
29006;SDS011;16104;48.642;9.008;2023-02-15T20:32:14;29.83;;;15.60;;
29006;SDS011;16104;48.642;9.008;2023-02-15T20:37:16;29.13;;;16.65;;
29006;SDS011;16104;48.642;9.008;2023-02-15T20:42:17;30.45;;;15.10;;
29006;SDS011;16104;48.642;9.008;2023-02-15T20:47:12;25.70;;;15.05;;
29006;SDS011;16104;48.642;9.008;2023-02-15T20:52:15;26.20;;;14.60;;
29006;SDS011;16104;48.642;9.008;2023-02-15T20:57:14;28.70;;;13.60;;
29006;SDS011;16104;48.642;9.008;2023-02-15T21:02:15;27.40;;;13.20;;
29006;SDS011;16104;48.642;9.008;2023-02-15T21:07:17;28.55;;;12.25;;
29006;SDS011;16104;48.642;9.008;2023-02-15T21:12:16;22.65;;;12.65;;
29006;SDS011;16104;48.642;9.008;2023-02-15T21:17:13;25.73;;;12.38;;
29006;SDS011;16104;48.642;9.008;2023-02-15T21:22:11;19.80;;;12.60;;
29006;SDS011;16104;48.642;9.008;2023-02-15T21:27:08;23.70;;;13.05;;
29006;SDS011;16104;48.642;9.008;2023-02-15T21:32:07;21.25;;;12.55;;
29006;SDS011;16104;48.642;9.008;2023-02-15T21:37:04;30.83;;;12.90;;
29006;SDS011;16104;48.642;9.008;2023-02-15T21:42:26;35.63;;;17.05;;
29006;SDS011;16104;48.642;9.008;2023-02-15T21:47:40;27.77;;;15.20;;
29006;SDS011;16104;48.642;9.008;2023-02-15T21:52:45;18.40;;;12.15;;
29006;SDS011;16104;48.642;9.008;2023-02-15T21:57:40;19.50;;;11.27;;
29006;SDS011;16104;48.642;9.008;2023-02-15T22:02:36;20.45;;;11.90;;
29006;SDS011;16104;48.642;9.008;2023-02-15T22:07:31;18.92;;;12.38;;
29006;SDS011;16104;48.642;9.008;2023-02-15T22:12:27;22.63;;;13.65;;
29006;SDS011;16104;48.642;9.008;2023-02-15T22:17:23;21.67;;;12.38;;
29006;SDS011;16104;48.642;9.008;2023-02-15T22:22:20;22.85;;;12.88;;
29006;SDS011;16104;48.642;9.008;2023-02-15T22:27:23;25.48;;;13.95;;
29006;SDS011;16104;48.642;9.008;2023-02-15T22:32:21;21.90;;;12.98;;
29006;SDS011;16104;48.642;9.008;2023-02-15T22:37:18;23.55;;;12.75;;
29006;SDS011;16104;48.642;9.008;2023-02-15T22:42:35;24.60;;;13.15;;
29006;SDS011;16104;48.642;9.008;2023-02-15T22:47:30;19.13;;;11.55;;
29006;SDS011;16104;48.642;9.008;2023-02-15T22:52:26;25.40;;;12.70;;
29006;SDS011;16104;48.642;9.008;2023-02-15T22:57:22;23.20;;;13.30;;
29006;SDS011;16104;48.642;9.008;2023-02-15T23:02:23;27.42;;;13.10;;
29006;SDS011;16104;48.642;9.008;2023-02-15T23:07:18;23.05;;;11.75;;
29006;SDS011;16104;48.642;9.008;2023-02-15T23:17:20;19.92;;;11.98;;
29006;SDS011;16104;48.642;9.008;2023-02-15T23:22:16;22.65;;;13.93;;
29006;SDS011;16104;48.642;9.008;2023-02-15T23:27:14;22.25;;;11.98;;
29006;SDS011;16104;48.642;9.008;2023-02-15T23:32:29;20.95;;;12.60;;
29006;SDS011;16104;48.642;9.008;2023-02-15T23:37:25;22.25;;;12.45;;
29006;SDS011;16104;48.642;9.008;2023-02-15T23:42:23;25.52;;;13.75;;
29006;SDS011;16104;48.642;9.008;2023-02-15T23:47:26;22.27;;;12.80;;
29006;SDS011;16104;48.642;9.008;2023-02-15T23:52:42;19.77;;;12.38;;
29006;SDS011;16104;48.642;9.008;2023-02-15T23:57:37;20.02;;;11.57;;
